Time;durP1;ratioP1;P1;durP2;ratioP2;P2;SDS_P1;SDS_P2;PMS_P1;PMS_P2;Temp;Humidity;BMP_temperature;BMP_pressure;BME280_temperature;BME280_humidity;BME280_pressure;Samples;Min_cycle;Max_cycle;Signal;HPM_P1;HPM_P2
2024/01/14 00:02:10;;;;;;;14.18;13.52;;;3.10;99.90;;;;;;5009141;28;20505;-79
2024/01/14 00:04:35;;;;;;;14.15;13.35;;;3.10;99.90;;;;;;5007940;28;20041;-80
2024/01/14 00:07:01;;;;;;;13.90;13.20;;;3.10;99.90;;;;;;5026754;28;20049;-79
2024/01/14 00:09:27;;;;;;;13.63;12.75;;;3.20;99.90;;;;;;5025075;28;20048;-80
2024/01/14 00:11:53;;;;;;;13.52;12.73;;;3.20;99.90;;;;;;5013088;28;20049;-79
2024/01/14 00:14:18;;;;;;;13.20;12.10;;;3.20;99.90;;;;;;5042493;28;20084;-79
2024/01/14 00:16:44;;;;;;;12.30;11.45;;;3.20;99.90;;;;;;5028290;28;20048;-79
2024/01/14 00:19:10;;;;;;;12.00;11.00;;;3.20;99.90;;;;;;5045261;28;20083;-79
2024/01/14 00:21:36;;;;;;;13.05;12.20;;;3.20;99.90;;;;;;5028349;28;20367;-79
2024/01/14 00:24:05;;;;;;;13.40;12.43;;;3.20;99.90;;;;;;5012868;28;20047;-78
2024/01/14 00:26:31;;;;;;;11.23;10.73;;;3.20;99.90;;;;;;5027634;28;20041;-78
2024/01/14 00:28:58;;;;;;;12.85;11.90;;;3.30;99.90;;;;;;5045610;28;20095;-78
2024/01/14 00:31:25;;;;;;;11.30;10.70;;;3.30;99.90;;;;;;5027620;28;20041;-77
2024/01/14 00:33:51;;;;;;;11.85;11.10;;;3.60;99.90;;;;;;5012362;28;20043;-79
2024/01/14 00:36:20;;;;;;;11.20;10.43;;;3.30;99.90;;;;;;5028527;28;20032;-77
2024/01/14 00:38:45;;;;;;;12.15;11.45;;;3.30;99.90;;;;;;5011181;28;20045;-78
2024/01/14 00:41:11;;;;;;;13.50;12.50;;;3.20;99.90;;;;;;5012584;28;20041;-80
2024/01/14 00:43:37;;;;;;;14.35;12.90;;;3.10;99.90;;;;;;5027236;28;20048;-78
2024/01/14 00:46:03;;;;;;;12.13;11.63;;;3.10;99.90;;;;;;5012204;28;20048;-78
2024/01/14 00:48:30;;;;;;;13.95;13.20;;;3.10;99.90;;;;;;5027441;28;20052;-79
2024/01/14 00:50:55;;;;;;;14.88;13.93;;;3.10;99.90;;;;;;5028897;28;20052;-80
2024/01/14 00:53:21;;;;;;;14.85;14.05;;;3.10;99.90;;;;;;5012142;28;20409;-77
2024/01/14 00:55:47;;;;;;;14.65;13.73;;;3.10;99.90;;;;;;5025799;28;20071;-78
2024/01/14 00:58:13;;;;;;;14.57;13.93;;;3.20;99.90;;;;;;5012725;28;20045;-78
2024/01/14 01:00:39;;;;;;;14.45;13.45;;;3.20;99.90;;;;;;5026662;28;20088;-79
2024/01/14 01:03:05;;;;;;;13.27;12.65;;;3.20;99.90;;;;;;5045291;28;20056;-80
2024/01/14 01:05:31;;;;;;;12.63;12.02;;;3.80;99.90;;;;;;5043531;28;20056;-77
2024/01/14 01:07:56;;;;;;;14.10;13.15;;;3.30;99.90;;;;;;5028189;28;20109;-78
2024/01/14 01:10:22;;;;;;;13.52;12.73;;;3.30;99.90;;;;;;5024127;28;20049;-79
2024/01/14 01:12:48;;;;;;;13.07;12.48;;;3.30;99.90;;;;;;5033802;28;20041;-79
2024/01/14 01:15:13;;;;;;;11.48;10.95;;;3.30;99.90;;;;;;5023468;28;20497;-77
2024/01/14 01:17:39;;;;;;;12.45;11.45;;;3.40;99.90;;;;;;5007779;28;20076;-77
2024/01/14 01:20:08;;;;;;;11.95;11.18;;;3.40;99.90;;;;;;5041695;28;20521;-77
2024/01/14 01:22:34;;;;;;;13.80;13.10;;;3.40;99.90;;;;;;5023652;28;20049;-79
2024/01/14 01:25:00;;;;;;;14.50;13.70;;;3.50;99.90;;;;;;5041214;28;20501;-79
2024/01/14 01:27:27;;;;;;;16.60;15.82;;;3.50;99.90;;;;;;5040741;28;22096;-79
2024/01/14 01:29:53;;;;;;;18.52;17.80;;;3.40;99.90;;;;;;5007522;28;20033;-78
2024/01/14 01:32:18;;;;;;;20.02;19.10;;;3.30;99.90;;;;;;5008456;28;20045;-79
2024/01/14 01:34:44;;;;;;;21.80;20.77;;;3.30;99.90;;;;;;5006909;28;20038;-78
2024/01/14 01:37:10;;;;;;;22.52;21.40;;;3.80;99.90;;;;;;5041192;28;20045;-78
2024/01/14 01:39:36;;;;;;;21.40;20.40;;;3.30;99.90;;;;;;5023322;28;20075;-79
2024/01/14 01:42:01;;;;;;;22.63;21.73;;;3.20;99.90;;;;;;5040842;28;20516;-78
2024/01/14 01:44:27;;;;;;;23.10;22.02;;;3.20;99.90;;;;;;5023461;28;20064;-78
2024/01/14 01:46:54;;;;;;;24.08;22.75;;;3.10;99.90;;;;;;5001802;28;20460;-79
2024/01/14 01:49:21;;;;;;;23.90;23.00;;;3.10;99.90;;;;;;5040657;28;20076;-79
2024/01/14 01:51:48;;;;;;;24.25;23.15;;;3.10;99.90;;;;;;5040027;28;20081;-80
2024/01/14 01:54:18;;;;;;;25.42;24.48;;;3.00;99.90;;;;;;5007935;28;20041;-79
2024/01/14 01:56:45;;;;;;;27.98;26.42;;;3.00;99.90;;;;;;5023158;28;20069;-80
2024/01/14 01:59:12;;;;;;;27.90;26.88;;;3.10;99.90;;;;;;5040394;28;20057;-79
2024/01/14 02:01:38;;;;;;;27.52;25.92;;;3.00;99.90;;;;;;5039685;28;20046;-78
2024/01/14 02:04:07;;;;;;;28.63;27.42;;;3.00;99.90;;;;;;5007665;28;20049;-79
2024/01/14 02:06:33;;;;;;;30.48;29.17;;;3.00;99.90;;;;;;5023388;28;20717;-79
2024/01/14 02:08:59;;;;;;;29.80;28.73;;;3.00;99.90;;;;;;5022694;28;20128;-79
2024/01/14 02:11:25;;;;;;;29.45;28.17;;;3.10;99.90;;;;;;5040481;28;20088;-78
2024/01/14 02:13:51;;;;;;;30.33;29.23;;;3.10;99.90;;;;;;5022334;28;20037;-78
2024/01/14 02:16:19;;;;;;;30.20;29.15;;;3.10;99.90;;;;;;5022978;28;20060;-76
2024/01/14 02:18:44;;;;;;;27.15;26.13;;;3.10;99.90;;;;;;5006725;28;20092;-78
2024/01/14 02:21:17;;;;;;;26.67;25.58;;;3.20;99.90;;;;;;5023367;28;20077;-78
2024/01/14 02:23:49;;;;;;;25.38;24.35;;;3.10;99.90;;;;;;5023668;28;20072;-78
2024/01/14 02:26:15;;;;;;;28.83;27.38;;;3.10;99.90;;;;;;5038944;28;20038;-79
2024/01/14 02:28:41;;;;;;;29.13;28.13;;;3.00;99.90;;;;;;5007493;28;20045;-79
2024/01/14 02:31:07;;;;;;;31.20;30.17;;;3.00;99.90;;;;;;5038702;28;20051;-79
2024/01/14 02:33:33;;;;;;;33.15;31.85;;;3.10;99.90;;;;;;5007142;28;20042;-79
2024/01/14 02:35:59;;;;;;;32.33;31.23;;;3.00;99.90;;;;;;5006780;28;20037;-79
2024/01/14 02:38:24;;;;;;;33.53;32.15;;;3.00;99.90;;;;;;5007167;28;20042;-79
2024/01/14 02:40:50;;;;;;;32.45;31.15;;;3.00;99.90;;;;;;5007431;28;20049;-78
2024/01/14 02:43:16;;;;;;;33.05;31.55;;;3.00;99.90;;;;;;5006013;28;20095;-79
2024/01/14 02:45:41;;;;;;;33.88;32.38;;;3.10;99.90;;;;;;5006845;28;20586;-79
2024/01/14 02:48:07;;;;;;;31.05;29.70;;;3.10;99.90;;;;;;5021733;28;20045;-78
2024/01/14 02:50:34;;;;;;;30.02;28.80;;;3.10;99.90;;;;;;5007341;28;20052;-78
2024/01/14 02:53:00;;;;;;;29.02;27.92;;;3.00;99.90;;;;;;5022854;28;20051;-77
2024/01/14 02:55:25;;;;;;;29.73;28.33;;;2.90;99.90;;;;;;5006507;28;20131;-77
2024/01/14 02:57:51;;;;;;;28.95;27.73;;;3.00;99.90;;;;;;5023579;28;20076;-78
2024/01/14 03:00:17;;;;;;;28.95;27.17;;;2.80;99.90;;;;;;5005124;28;20083;-78
2024/01/14 03:02:43;;;;;;;31.05;29.50;;;2.70;99.90;;;;;;5007335;28;20038;-79
2024/01/14 03:05:09;;;;;;;28.08;26.58;;;2.70;99.90;;;;;;5005682;28;20095;-79
2024/01/14 03:07:34;;;;;;;25.35;24.23;;;2.70;99.90;;;;;;5039816;28;20048;-77
2024/01/14 03:10:00;;;;;;;26.90;25.80;;;2.60;99.90;;;;;;5025957;28;20049;-79
2024/01/14 03:12:26;;;;;;;26.92;25.60;;;2.60;99.90;;;;;;5009815;28;20107;-79
2024/01/14 03:14:51;;;;;;;26.52;25.27;;;2.50;99.90;;;;;;5009063;28;20072;-78
2024/01/14 03:17:17;;;;;;;25.40;24.40;;;2.50;99.90;;;;;;5025388;28;20033;-77
2024/01/14 03:19:43;;;;;;;28.27;27.08;;;2.40;99.90;;;;;;5010397;28;20037;-79
2024/01/14 03:22:09;;;;;;;27.10;25.95;;;2.40;99.90;;;;;;5025519;28;20068;-78
2024/01/14 03:24:34;;;;;;;25.98;24.73;;;2.50;99.90;;;;;;5010426;28;20078;-78
2024/01/14 03:27:00;;;;;;;24.08;23.05;;;2.50;99.90;;;;;;5008444;28;20407;-78
2024/01/14 03:29:26;;;;;;;26.92;25.10;;;2.40;99.90;;;;;;5009834;28;20435;-77
2024/01/14 03:31:51;;;;;;;26.05;24.88;;;2.40;99.90;;;;;;5042427;28;20049;-79
2024/01/14 03:34:17;;;;;;;29.20;28.10;;;2.40;99.90;;;;;;5008864;28;20069;-79
2024/01/14 03:36:43;;;;;;;28.85;27.42;;;2.40;99.90;;;;;;5009934;28;20135;-78
2024/01/14 03:39:08;;;;;;;27.80;26.15;;;2.50;99.90;;;;;;5028158;28;20033;-79
2024/01/14 03:41:34;;;;;;;28.70;27.65;;;2.40;99.90;;;;;;5029942;28;20091;-79
2024/01/14 03:44:00;;;;;;;29.30;27.90;;;2.40;99.90;;;;;;5011926;28;20079;-77
2024/01/14 03:46:25;;;;;;;30.88;29.52;;;2.40;99.90;;;;;;5045770;28;20108;-77
2024/01/14 03:48:51;;;;;;;30.77;28.75;;;2.40;99.90;;;;;;5013038;28;20091;-77
2024/01/14 03:51:17;;;;;;;28.25;26.88;;;2.50;99.90;;;;;;5045909;28;20397;-78
2024/01/14 03:53:42;;;;;;;28.05;26.70;;;2.50;99.90;;;;;;5030028;28;20041;-77
2024/01/14 03:56:08;;;;;;;27.30;26.25;;;2.50;99.90;;;;;;5029000;28;20045;-78
2024/01/14 03:58:34;;;;;;;28.88;27.70;;;2.40;99.90;;;;;;5029521;28;20064;-78
2024/01/14 04:01:00;;;;;;;28.38;27.00;;;2.50;99.90;;;;;;5011839;28;20049;-78
2024/01/14 04:03:25;;;;;;;27.05;25.90;;;2.70;99.90;;;;;;5013399;28;20075;-79
2024/01/14 04:05:51;;;;;;;27.20;26.10;;;2.50;99.90;;;;;;5012722;28;20045;-78
2024/01/14 04:08:17;;;;;;;29.52;28.33;;;2.60;99.90;;;;;;5012674;28;20040;-78
2024/01/14 04:10:42;;;;;;;29.55;28.17;;;3.00;99.90;;;;;;5045622;28;20049;-77
2024/01/14 04:13:08;;;;;;;28.25;26.70;;;2.50;99.90;;;;;;5044804;28;20068;-77
2024/01/14 04:15:35;;;;;;;29.33;28.08;;;2.50;99.90;;;;;;5029347;28;20041;-78
2024/01/14 04:18:01;;;;;;;30.10;28.77;;;2.50;99.90;;;;;;5028193;28;20610;-78
2024/01/14 04:20:27;;;;;;;30.50;28.90;;;2.50;99.90;;;;;;5029521;28;20033;-77
2024/01/14 04:22:53;;;;;;;26.05;24.77;;;2.50;99.90;;;;;;5028513;28;20081;-78
2024/01/14 04:25:18;;;;;;;25.77;24.65;;;2.60;99.90;;;;;;5045710;28;20043;-79
2024/01/14 04:27:44;;;;;;;26.77;25.67;;;2.50;99.90;;;;;;5045353;28;20104;-78
2024/01/14 04:30:10;;;;;;;27.15;26.10;;;2.40;99.90;;;;;;5043952;28;20045;-78
2024/01/14 04:32:36;;;;;;;28.50;27.30;;;2.30;99.90;;;;;;5043762;28;20080;-78
2024/01/14 04:35:01;;;;;;;27.73;26.48;;;2.30;99.90;;;;;;5009645;28;20045;-78
2024/01/14 04:37:27;;;;;;;27.40;25.95;;;2.30;99.90;;;;;;5044092;28;20045;-78
2024/01/14 04:39:55;;;;;;;24.92;23.95;;;2.30;99.90;;;;;;5027050;28;20049;-78
2024/01/14 04:42:21;;;;;;;26.73;25.30;;;2.20;99.90;;;;;;5029066;28;20048;-78
2024/01/14 04:44:47;;;;;;;29.02;27.30;;;2.20;99.90;;;;;;5045236;28;20033;-77
2024/01/14 04:47:12;;;;;;;29.20;27.90;;;2.40;99.90;;;;;;5027813;28;20128;-78
2024/01/14 04:49:38;;;;;;;29.67;28.08;;;2.20;99.90;;;;;;5011545;28;20041;-77
2024/01/14 04:52:04;;;;;;;28.50;27.40;;;2.10;99.90;;;;;;5044047;28;20049;-78
2024/01/14 04:54:29;;;;;;;28.70;27.38;;;2.10;99.90;;;;;;5012871;28;20065;-77
2024/01/14 04:56:57;;;;;;;28.90;27.60;;;2.10;99.90;;;;;;5028089;28;20531;-77
2024/01/14 04:59:23;;;;;;;30.98;29.67;;;2.10;99.90;;;;;;5028208;28;20032;-77
2024/01/14 05:01:48;;;;;;;31.20;30.00;;;2.10;99.90;;;;;;5027877;28;20041;-77
2024/01/14 05:04:14;;;;;;;32.20;30.58;;;2.20;99.90;;;;;;5027812;28;20048;-78
2024/01/14 05:06:40;;;;;;;28.70;27.23;;;2.20;99.90;;;;;;5012170;28;20101;-78
2024/01/14 05:09:06;;;;;;;27.05;25.60;;;2.30;99.90;;;;;;5010606;28;20153;-78
2024/01/14 05:11:31;;;;;;;30.77;29.50;;;2.30;99.90;;;;;;5012353;28;20052;-78
2024/01/14 05:13:57;;;;;;;29.63;27.80;;;2.20;99.90;;;;;;5027190;28;20773;-78
2024/01/14 05:16:23;;;;;;;27.92;26.60;;;2.30;99.90;;;;;;5007982;28;20068;-78
2024/01/14 05:18:49;;;;;;;26.67;25.48;;;2.50;99.90;;;;;;5031136;28;20096;-78
2024/01/14 05:21:16;;;;;;;24.15;23.15;;;2.30;99.90;;;;;;5011418;28;20041;-78
2024/01/14 05:23:42;;;;;;;25.17;23.63;;;2.70;99.90;;;;;;5044685;28;20045;-77
2024/01/14 05:26:08;;;;;;;25.38;24.42;;;2.20;99.90;;;;;;5010650;28;20053;-77
2024/01/14 05:28:34;;;;;;;26.40;25.00;;;2.40;99.90;;;;;;5045246;28;20139;-77
2024/01/14 05:31:00;;;;;;;25.42;24.42;;;2.10;99.90;;;;;;5026557;28;20124;-78
2024/01/14 05:33:25;;;;;;;25.23;23.50;;;2.20;99.90;;;;;;5011724;28;20052;-78
2024/01/14 05:35:51;;;;;;;27.25;26.08;;;2.10;99.90;;;;;;5027322;28;20045;-78
2024/01/14 05:38:17;;;;;;;28.10;26.65;;;2.00;99.90;;;;;;5044000;28;20041;-78
2024/01/14 05:40:42;;;;;;;28.88;27.83;;;1.90;99.90;;;;;;5028194;28;20048;-78
2024/01/14 05:43:08;;;;;;;28.25;27.15;;;1.90;99.90;;;;;;5010438;28;20041;-78
2024/01/14 05:45:34;;;;;;;28.17;26.67;;;1.90;99.90;;;;;;5027611;28;20036;-77
2024/01/14 05:47:59;;;;;;;27.17;26.10;;;2.80;99.90;;;;;;5009886;28;20047;-78
2024/01/14 05:50:25;;;;;;;28.48;26.63;;;1.90;99.90;;;;;;5044319;28;20036;-77
2024/01/14 05:52:51;;;;;;;29.00;27.90;;;1.90;99.90;;;;;;5043399;28;20045;-78
2024/01/14 05:55:17;;;;;;;30.50;28.92;;;1.80;99.90;;;;;;5027135;28;20087;-78
2024/01/14 05:57:43;;;;;;;30.17;28.65;;;1.80;99.90;;;;;;5044130;28;20037;-78
2024/01/14 06:00:09;;;;;;;29.70;28.40;;;2.00;99.90;;;;;;5009948;28;20055;-78
2024/01/14 06:02:35;;;;;;;30.50;29.20;;;1.70;99.90;;;;;;5027393;28;20060;-78
2024/01/14 06:05:01;;;;;;;29.77;28.67;;;1.80;99.90;;;;;;5009859;28;20560;-78
2024/01/14 06:07:26;;;;;;;31.17;29.92;;;2.00;99.90;;;;;;5044219;28;20052;-77
2024/01/14 06:09:52;;;;;;;30.90;29.60;;;1.70;99.90;;;;;;5026314;28;20128;-77
2024/01/14 06:12:19;;;;;;;32.05;30.95;;;1.70;99.90;;;;;;5043662;28;20037;-78
2024/01/14 06:14:44;;;;;;;33.75;32.25;;;1.70;99.90;;;;;;5026684;28;20033;-78
2024/01/14 06:17:10;;;;;;;32.35;31.08;;;1.80;99.90;;;;;;5006652;28;20060;-77
2024/01/14 06:19:36;;;;;;;32.00;30.90;;;2.40;99.90;;;;;;5041995;28;20064;-77
2024/01/14 06:22:01;;;;;;;31.10;29.25;;;2.40;99.90;;;;;;5025615;28;20048;-78
2024/01/14 06:24:27;;;;;;;28.58;27.27;;;1.90;99.90;;;;;;5031204;28;20068;-77
2024/01/14 06:26:54;;;;;;;28.20;27.10;;;2.50;99.90;;;;;;5030096;28;20063;-78
2024/01/14 06:29:20;;;;;;;30.10;28.95;;;1.90;99.90;;;;;;5027361;28;20112;-78
2024/01/14 06:31:47;;;;;;;30.15;28.50;;;1.90;99.90;;;;;;5026544;28;20520;-77
2024/01/14 06:34:12;;;;;;;30.48;29.15;;;2.10;99.90;;;;;;5026555;28;20071;-77
2024/01/14 06:36:38;;;;;;;28.98;27.88;;;1.90;99.90;;;;;;5010902;28;20040;-78
2024/01/14 06:39:07;;;;;;;28.42;27.23;;;2.00;99.90;;;;;;5041964;28;20048;-77
2024/01/14 06:41:33;;;;;;;29.13;28.10;;;1.90;99.90;;;;;;5043798;28;20036;-78
2024/01/14 06:43:59;;;;;;;30.88;29.77;;;1.90;99.90;;;;;;5009705;28;20075;-79
2024/01/14 06:46:25;;;;;;;31.40;29.83;;;2.00;99.90;;;;;;5010301;28;20101;-78
2024/01/14 06:48:50;;;;;;;30.38;28.90;;;2.10;99.90;;;;;;5010308;28;20044;-78
2024/01/14 06:51:16;;;;;;;29.52;27.88;;;2.10;99.90;;;;;;5042270;28;20132;-79
2024/01/14 06:53:42;;;;;;;32.95;31.65;;;2.50;99.90;;;;;;5026871;28;20043;-80
2024/01/14 06:56:08;;;;;;;31.88;30.58;;;2.90;99.90;;;;;;5025276;28;20052;-78
2024/01/14 06:58:34;;;;;;;30.42;29.13;;;2.30;99.90;;;;;;5043602;28;20037;-78
2024/01/14 07:01:01;;;;;;;32.85;31.55;;;2.30;99.90;;;;;;5025164;28;20496;-78
2024/01/14 07:03:27;;;;;;;32.67;31.58;;;2.30;99.90;;;;;;5026999;28;20045;-79
2024/01/14 07:05:53;;;;;;;33.45;32.03;;;2.30;99.90;;;;;;5026457;28;20051;-77
2024/01/14 07:08:18;;;;;;;33.13;31.92;;;2.40;99.90;;;;;;5042409;28;20047;-78
2024/01/14 07:10:44;;;;;;;32.13;31.02;;;2.60;99.90;;;;;;5042679;28;20057;-78
2024/01/14 07:13:10;;;;;;;35.38;33.90;;;2.90;99.90;;;;;;5042975;28;20045;-78
2024/01/14 07:15:35;;;;;;;34.30;32.65;;;2.30;99.90;;;;;;5013644;28;20051;-78
2024/01/14 07:18:04;;;;;;;35.40;33.58;;;2.30;99.90;;;;;;5045835;28;20041;-78
2024/01/14 07:20:30;;;;;;;33.17;31.88;;;2.30;99.90;;;;;;5047371;28;20071;-78
2024/01/14 07:22:56;;;;;;;33.47;32.08;;;2.70;99.90;;;;;;5046403;28;20048;-78
2024/01/14 07:25:22;;;;;;;32.92;31.58;;;2.30;99.90;;;;;;5046281;28;20094;-78
2024/01/14 07:27:48;;;;;;;32.53;31.08;;;2.20;99.90;;;;;;5014466;28;20183;-78
2024/01/14 07:30:17;;;;;;;33.92;32.40;;;2.20;99.90;;;;;;5045437;28;20041;-78
2024/01/14 07:32:43;;;;;;;32.15;30.92;;;2.20;99.90;;;;;;5030913;28;20123;-78
2024/01/14 07:35:09;;;;;;;33.13;31.73;;;2.40;99.90;;;;;;5012403;28;20037;-77
2024/01/14 07:37:35;;;;;;;33.00;31.25;;;2.20;99.90;;;;;;5030214;28;20040;-79
2024/01/14 07:40:01;;;;;;;35.50;34.08;;;2.30;99.90;;;;;;5009439;28;20124;-81
2024/01/14 07:42:27;;;;;;;33.15;32.05;;;2.30;99.90;;;;;;5011294;28;20052;-80
2024/01/14 07:44:53;;;;;;;34.33;33.13;;;2.30;99.90;;;;;;5046310;28;20129;-78
2024/01/14 07:47:20;;;;;;;33.78;32.13;;;2.40;99.90;;;;;;5027851;28;20510;-78
2024/01/14 07:49:48;;;;;;;33.03;31.92;;;2.30;99.90;;;;;;5012601;28;20048;-78
2024/01/14 07:52:16;;;;;;;33.67;32.58;;;2.40;99.90;;;;;;5012648;28;20083;-78
2024/01/14 07:54:42;;;;;;;33.10;31.83;;;2.40;99.90;;;;;;5046501;28;20044;-78
2024/01/14 07:57:07;;;;;;;31.63;30.35;;;3.10;99.90;;;;;;5045628;28;20041;-78
2024/01/14 07:59:33;;;;;;;30.40;29.27;;;2.40;99.90;;;;;;5013067;28;20041;-77
2024/01/14 08:01:59;;;;;;;32.00;30.48;;;2.60;99.90;;;;;;5043337;28;20041;-77
2024/01/14 08:04:24;;;;;;;31.63;30.27;;;2.30;99.90;;;;;;5044372;28;20132;-78
2024/01/14 08:06:50;;;;;;;31.27;30.17;;;2.30;99.90;;;;;;5046316;28;20041;-78
2024/01/14 08:09:16;;;;;;;34.13;32.03;;;3.10;99.90;;;;;;5044910;28;20056;-78
2024/01/14 08:11:41;;;;;;;35.08;33.58;;;2.40;99.90;;;;;;5045935;28;20103;-78
2024/01/14 08:14:07;;;;;;;32.33;31.23;;;2.90;99.90;;;;;;5044640;28;20045;-77
2024/01/14 08:16:33;;;;;;;34.97;33.50;;;2.50;99.90;;;;;;5045077;28;20064;-78
2024/01/14 08:18:58;;;;;;;32.67;31.48;;;2.60;99.90;;;;;;5045716;28;20053;-78
2024/01/14 08:21:24;;;;;;;34.22;32.90;;;2.90;99.90;;;;;;5028403;28;20104;-78
2024/01/14 08:23:50;;;;;;;35.17;33.67;;;2.60;99.90;;;;;;5029079;28;20047;-77
2024/01/14 08:26:16;;;;;;;34.63;33.15;;;2.70;99.90;;;;;;5028267;28;20080;-77
2024/01/14 08:28:41;;;;;;;32.45;31.05;;;2.70;99.90;;;;;;5029688;28;20069;-78
2024/01/14 08:31:07;;;;;;;32.17;31.08;;;2.80;99.90;;;;;;5020099;28;20181;-77
2024/01/14 08:33:33;;;;;;;33.17;31.83;;;2.80;99.90;;;;;;5027848;28;20128;-80
2024/01/14 08:35:59;;;;;;;34.08;32.88;;;2.80;99.90;;;;;;4998375;28;20036;-81
2024/01/14 08:38:25;;;;;;;31.10;29.75;;;2.80;99.90;;;;;;5006241;28;20049;-80
2024/01/14 08:40:52;;;;;;;30.33;29.05;;;2.80;99.90;;;;;;5005566;28;20041;-80
2024/01/14 08:43:18;;;;;;;29.75;28.75;;;2.80;99.90;;;;;;5010130;28;20040;-79
2024/01/14 08:45:43;;;;;;;31.75;30.52;;;3.20;99.90;;;;;;5042382;28;20055;-78
2024/01/14 08:48:11;;;;;;;29.88;28.77;;;2.90;99.90;;;;;;5061192;28;20037;-78
2024/01/14 08:50:37;;;;;;;30.73;29.58;;;2.90;99.90;;;;;;5024668;28;20042;-78
2024/01/14 08:53:03;;;;;;;30.77;29.17;;;3.00;99.90;;;;;;5018660;28;20517;-77
2024/01/14 08:55:29;;;;;;;31.90;30.65;;;3.00;99.90;;;;;;5039510;28;20432;-79
2024/01/14 08:57:55;;;;;;;31.05;29.88;;;3.00;99.90;;;;;;4991853;28;20058;-79
2024/01/14 09:00:21;;;;;;;31.65;30.15;;;3.00;99.90;;;;;;5017012;28;20052;-80
2024/01/14 09:02:47;;;;;;;29.65;28.65;;;3.00;99.90;;;;;;5012190;28;20041;-80
2024/01/14 09:05:13;;;;;;;30.23;29.13;;;3.00;99.90;;;;;;5010552;28;20110;-78
2024/01/14 09:07:38;;;;;;;30.00;28.90;;;3.00;99.90;;;;;;5027741;28;20037;-78
2024/01/14 09:10:05;;;;;;;31.35;30.05;;;2.90;99.90;;;;;;5006626;28;20405;-78
2024/01/14 09:12:30;;;;;;;31.02;29.92;;;2.90;99.90;;;;;;5040368;28;20051;-80
2024/01/14 09:14:56;;;;;;;31.63;30.33;;;2.90;99.90;;;;;;5043943;28;20049;-79
2024/01/14 09:17:22;;;;;;;32.47;31.27;;;2.90;99.90;;;;;;5010360;28;20037;-80
2024/01/14 09:19:48;;;;;;;30.88;29.77;;;2.90;99.90;;;;;;5011659;28;20277;-78
2024/01/14 09:22:13;;;;;;;30.98;29.92;;;2.90;99.90;;;;;;5021865;28;20103;-78
2024/01/14 09:24:43;;;;;;;32.63;31.38;;;2.90;99.90;;;;;;4995397;28;20041;-80
2024/01/14 09:27:09;;;;;;;31.83;30.73;;;3.00;99.90;;;;;;5011559;28;20048;-79
2024/01/14 09:29:35;;;;;;;30.77;29.48;;;3.00;99.90;;;;;;5026693;28;20048;-78
2024/01/14 09:32:01;;;;;;;32.97;31.23;;;3.00;99.90;;;;;;5010716;28;20458;-78
2024/01/14 09:34:26;;;;;;;33.03;31.85;;;3.00;99.90;;;;;;5006349;28;20050;-79
2024/01/14 09:36:55;;;;;;;33.60;32.25;;;3.10;99.90;;;;;;5009967;28;20037;-79
2024/01/14 09:39:21;;;;;;;32.95;31.65;;;3.00;99.90;;;;;;5004911;28;20037;-80
2024/01/14 09:42:02;;;;;;;31.92;30.83;;;3.10;99.90;;;;;;5017094;28;20070;-79
2024/01/14 09:44:28;;;;;;;31.70;30.33;;;3.10;99.90;;;;;;5031712;28;20501;-78
2024/01/14 09:46:54;;;;;;;30.58;29.35;;;3.10;99.90;;;;;;4982652;28;20049;-79
2024/01/14 09:49:23;;;;;;;29.55;28.25;;;3.20;99.90;;;;;;5034221;28;20108;-80
2024/01/14 09:51:49;;;;;;;30.33;29.23;;;3.20;99.90;;;;;;5002206;28;20067;-77
2024/01/14 09:54:16;;;;;;;29.23;28.15;;;3.20;99.90;;;;;;5001642;28;20041;-79
2024/01/14 09:56:42;;;;;;;29.58;28.40;;;3.20;99.90;;;;;;5015713;28;20037;-79
2024/01/14 09:59:09;;;;;;;27.95;26.75;;;3.20;99.90;;;;;;5023972;28;20049;-78
2024/01/14 10:01:35;;;;;;;23.95;23.15;;;3.30;99.90;;;;;;5023392;28;20103;-78
2024/01/14 10:04:02;;;;;;;24.55;23.40;;;3.30;99.90;;;;;;4990637;28;20060;-78
2024/01/14 10:06:28;;;;;;;26.00;24.90;;;3.20;99.90;;;;;;5007367;28;20044;-79
2024/01/14 10:08:55;;;;;;;24.98;24.08;;;3.30;99.90;;;;;;5007092;28;20054;-78
2024/01/14 10:11:21;;;;;;;23.08;22.27;;;3.50;99.90;;;;;;5027170;28;20080;-79
2024/01/14 10:13:49;;;;;;;23.88;22.98;;;3.40;99.90;;;;;;5014023;28;20072;-80
2024/01/14 10:16:15;;;;;;;22.35;21.55;;;3.50;99.90;;;;;;5022618;28;20049;-81
2024/01/14 10:18:40;;;;;;;19.50;18.80;;;3.60;99.90;;;;;;5006761;28;20091;-79
2024/01/14 10:21:06;;;;;;;17.15;16.45;;;3.70;99.90;;;;;;5006043;28;20057;-78
2024/01/14 10:23:32;;;;;;;18.48;17.77;;;3.70;99.90;;;;;;4991103;28;20081;-81
2024/01/14 10:26:02;;;;;;;20.88;20.10;;;3.70;99.90;;;;;;5004073;28;20053;-80
2024/01/14 10:28:45;;;;;;;19.83;18.92;;;3.60;99.90;;;;;;5026678;28;20432;-78
2024/01/14 10:31:11;;;;;;;20.92;20.02;;;3.70;99.90;;;;;;5002587;28;20115;-79
2024/01/14 10:33:37;;;;;;;19.50;18.60;;;3.60;99.90;;;;;;5011718;28;20509;-79
2024/01/14 10:36:07;;;;;;;22.17;21.02;;;3.60;99.90;;;;;;5009706;28;20456;-78
2024/01/14 10:38:34;;;;;;;19.90;19.10;;;3.60;99.90;;;;;;5009544;28;20045;-79
2024/01/14 10:41:00;;;;;;;20.05;19.05;;;3.70;99.90;;;;;;5026799;28;20539;-80
2024/01/14 10:43:28;;;;;;;20.60;19.48;;;3.50;99.90;;;;;;5041244;28;20088;-80
2024/01/14 10:45:55;;;;;;;20.15;19.00;;;3.50;99.90;;;;;;5018887;28;20057;-80
2024/01/14 10:48:28;;;;;;;21.55;19.95;;;3.40;99.90;;;;;;4989920;28;20073;-79
2024/01/14 10:50:59;;;;;;;21.90;21.08;;;3.50;99.90;;;;;;5022427;28;20053;-78
2024/01/14 10:53:29;;;;;;;21.90;20.75;;;3.40;99.90;;;;;;5007550;28;20049;-81
2024/01/14 10:55:58;;;;;;;20.58;19.60;;;3.50;99.90;;;;;;5006062;28;20049;-78
2024/01/14 10:58:26;;;;;;;22.95;21.80;;;3.50;99.90;;;;;;5015463;28;20104;-79
2024/01/14 11:00:56;;;;;;;19.13;18.08;;;3.50;99.90;;;;;;5025092;28;20047;-77
2024/01/14 11:03:23;;;;;;;19.67;18.77;;;3.50;99.90;;;;;;5026885;28;20080;-79
2024/01/14 11:05:51;;;;;;;19.65;18.60;;;3.50;99.90;;;;;;5025608;28;20113;-78
2024/01/14 11:08:19;;;;;;;18.40;17.50;;;3.50;99.90;;;;;;5009366;28;20129;-80
2024/01/14 11:10:45;;;;;;;18.60;17.58;;;3.50;99.90;;;;;;5024786;28;20045;-78
2024/01/14 11:13:23;;;;;;;18.77;17.58;;;3.50;99.90;;;;;;5034014;28;20603;-79
2024/01/14 11:16:16;;;;;;;19.52;18.40;;;3.50;99.90;;;;;;5005815;28;20037;-80
2024/01/14 11:19:03;;;;;;;19.52;18.42;;;3.40;99.90;;;;;;5022590;28;20115;-79
2024/01/14 11:21:39;;;;;;;;;;;3.40;99.90;;;;;;5037956;28;20081;-80
2024/01/14 11:24:06;;;;;;;21.53;20.27;;;3.40;99.90;;;;;;5006319;28;19951;-79
2024/01/14 11:26:32;;;;;;;22.35;21.02;;;3.40;99.90;;;;;;4999920;28;20049;-80
2024/01/14 11:29:03;;;;;;;22.33;20.75;;;3.40;99.90;;;;;;5006609;28;20048;-79
2024/01/14 11:32:03;;;;;;;21.95;20.50;;;3.40;99.90;;;;;;4994492;28;20049;-79
2024/01/14 11:34:47;;;;;;;22.85;21.33;;;3.40;99.90;;;;;;5021305;28;20054;-80
2024/01/14 11:37:40;;;;;;;21.30;19.85;;;3.50;99.90;;;;;;5006607;28;20046;-79
2024/01/14 11:40:06;;;;;;;23.73;21.85;;;3.50;99.90;;;;;;4998347;28;20061;-80
2024/01/14 11:42:32;;;;;;;23.13;21.45;;;3.50;99.90;;;;;;5005320;28;20049;-78
2024/01/14 11:45:13;;;;;;;21.27;19.95;;;3.50;99.90;;;;;;5006573;28;20084;-80
2024/01/14 11:47:46;;;;;;;19.60;18.30;;;3.60;99.90;;;;;;5035014;28;20551;-78
2024/01/14 11:50:14;;;;;;;21.08;19.23;;;3.60;99.90;;;;;;5042246;28;20051;-79
2024/01/14 11:52:45;;;;;;;19.55;18.45;;;3.60;99.90;;;;;;5025035;28;20041;-78
2024/01/14 11:55:16;;;;;;;19.38;18.08;;;3.70;99.90;;;;;;5025870;28;20060;-79
2024/01/14 11:57:47;;;;;;;17.77;16.45;;;3.80;99.90;;;;;;5010329;28;20059;-79
2024/01/14 12:00:15;;;;;;;15.02;13.95;;;3.90;99.90;;;;;;4991776;28;20507;-78
2024/01/14 12:02:41;;;;;;;11.20;10.40;;;4.10;99.90;;;;;;5009475;28;20045;-77
2024/01/14 12:05:20;;;;;;;12.25;11.38;;;4.10;99.90;;;;;;5024351;28;20049;-77
2024/01/14 12:07:47;;;;;;;13.98;13.18;;;4.00;99.90;;;;;;5009921;28;20057;-78
2024/01/14 12:10:18;;;;;;;12.82;12.10;;;4.00;99.90;;;;;;5009161;28;20050;-79
2024/01/14 12:12:44;;;;;;;14.75;13.85;;;4.10;99.90;;;;;;5024916;28;20064;-78
2024/01/14 12:15:10;;;;;;;12.88;11.98;;;4.00;99.90;;;;;;4995017;28;20057;-78
2024/01/14 12:17:36;;;;;;;12.82;11.85;;;4.00;99.90;;;;;;5007868;28;20045;-79
2024/01/14 12:20:04;;;;;;;13.27;12.27;;;3.90;99.90;;;;;;4993093;28;20044;-79
2024/01/14 12:22:31;;;;;;;13.00;12.00;;;4.00;99.90;;;;;;5009830;28;20112;-79
2024/01/14 12:24:57;;;;;;;11.88;11.25;;;3.90;99.90;;;;;;5028821;28;20175;-78
2024/01/14 12:27:23;;;;;;;13.88;12.82;;;3.80;99.90;;;;;;5044895;28;20055;-79
2024/01/14 12:29:49;;;;;;;10.50;9.63;;;3.80;99.90;;;;;;5028239;28;20131;-79
2024/01/14 12:32:15;;;;;;;11.48;10.63;;;3.80;99.90;;;;;;5013272;28;20038;-77
2024/01/14 12:34:41;;;;;;;12.00;11.27;;;3.80;99.90;;;;;;4992947;28;20059;-76
2024/01/14 12:37:07;;;;;;;13.65;12.68;;;3.70;99.90;;;;;;5045367;28;20128;-78